sensor_id;sensor_type;location;lat;lon;timestamp;pressure;altitude;pressure_sealevel;temperature;humidity
58622;BME280;44389;51.578;5.456;2023-07-29T00:02:07;100599.44;;;15.56;100.00
58622;BME280;44389;51.578;5.456;2023-07-29T00:04:32;100593.41;;;15.60;100.00
58622;BME280;44389;51.578;5.456;2023-07-29T00:06:57;100593.41;;;15.61;100.00
58622;BME280;44389;51.578;5.456;2023-07-29T00:09:23;100585.63;;;15.66;100.00
58622;BME280;44389;51.578;5.456;2023-07-29T00:11:48;100585.63;;;15.69;100.00
58622;BME280;44389;51.578;5.456;2023-07-29T00:14:13;100576.03;;;15.53;100.00
58622;BME280;44389;51.578;5.456;2023-07-29T00:16:39;100573.47;;;15.62;100.00
58622;BME280;44389;51.578;5.456;2023-07-29T00:19:04;100577.81;;;15.63;100.00
58622;BME280;44389;51.578;5.456;2023-07-29T00:21:29;100579.59;;;15.72;100.00
58622;BME280;44389;51.578;5.456;2023-07-29T00:23:55;100583.06;;;15.75;100.00
58622;BME280;44389;51.578;5.456;2023-07-29T00:26:22;100583.94;;;15.71;100.00
58622;BME280;44389;51.578;5.456;2023-07-29T00:28:48;100583.03;;;15.69;100.00
58622;BME280;44389;51.578;5.456;2023-07-29T00:31:13;100587.38;;;15.75;100.00
58622;BME280;44389;51.578;5.456;2023-07-29T00:33:38;100584.81;;;15.76;100.00
58622;BME280;44389;51.578;5.456;2023-07-29T00:36:04;100577.88;;;15.80;100.00
58622;BME280;44389;51.578;5.456;2023-07-29T00:38:29;100581.38;;;15.84;100.00
58622;BME280;44389;51.578;5.456;2023-07-29T00:40:57;100581.34;;;15.80;100.00
58622;BME280;44389;51.578;5.456;2023-07-29T00:43:22;100574.41;;;15.76;100.00
58622;BME280;44389;51.578;5.456;2023-07-29T00:45:47;100559.66;;;15.72;100.00
58622;BME280;44389;51.578;5.456;2023-07-29T00:48:13;100560.53;;;15.74;100.00
58622;BME280;44389;51.578;5.456;2023-07-29T00:50:39;100565.75;;;15.77;100.00
58622;BME280;44389;51.578;5.456;2023-07-29T00:53:04;100561.38;;;15.62;100.00
58622;BME280;44389;51.578;5.456;2023-07-29T00:55:30;100557.06;;;15.66;100.00
58622;BME280;44389;51.578;5.456;2023-07-29T00:57:55;100559.63;;;15.58;100.00
58622;BME280;44389;51.578;5.456;2023-07-29T01:00:21;100557.03;;;15.63;100.00
58622;BME280;44389;51.578;5.456;2023-07-29T01:02:47;100550.97;;;15.62;100.00
58622;BME280;44389;51.578;5.456;2023-07-29T01:05:14;100554.47;;;15.68;100.00
58622;BME280;44389;51.578;5.456;2023-07-29T01:07:51;100555.34;;;15.77;100.00
58622;BME280;44389;51.578;5.456;2023-07-29T01:10:51;100560.50;;;15.68;100.00
58622;BME280;44389;51.578;5.456;2023-07-29T01:13:25;100558.78;;;15.61;100.00
58622;BME280;44389;51.578;5.456;2023-07-29T01:15:58;100555.28;;;15.59;100.00
58622;BME280;44389;51.578;5.456;2023-07-29T01:18:35;100563.94;;;15.58;100.00
58622;BME280;44389;51.578;5.456;2023-07-29T01:21:07;100561.31;;;15.52;100.00
58622;BME280;44389;51.578;5.456;2023-07-29T01:23:34;100558.63;;;15.33;100.00
58622;BME280;44389;51.578;5.456;2023-07-29T01:26:01;100557.78;;;15.34;100.00
58622;BME280;44389;51.578;5.456;2023-07-29T01:28:27;100556.88;;;15.27;100.00
58622;BME280;44389;51.578;5.456;2023-07-29T01:31:09;100556.88;;;15.29;100.00
58622;BME280;44389;51.578;5.456;2023-07-29T01:33:58;100556.03;;;15.30;100.00
58622;BME280;44389;51.578;5.456;2023-07-29T01:36:27;100556.91;;;15.38;100.00
58622;BME280;44389;51.578;5.456;2023-07-29T01:38:54;100560.34;;;15.28;100.00
58622;BME280;44389;51.578;5.456;2023-07-29T01:41:22;100559.47;;;15.34;100.00
58622;BME280;44389;51.578;5.456;2023-07-29T01:43:48;100564.75;;;15.49;100.00
58622;BME280;44389;51.578;5.456;2023-07-29T01:46:15;100567.38;;;15.54;100.00
58622;BME280;44389;51.578;5.456;2023-07-29T01:48:40;100569.09;;;15.52;100.00
58622;BME280;44389;51.578;5.456;2023-07-29T01:51:06;100570.84;;;15.50;100.00
58622;BME280;44389;51.578;5.456;2023-07-29T01:53:32;100567.38;;;15.57;100.00
58622;BME280;44389;51.578;5.456;2023-07-29T01:55:58;100583.91;;;15.67;100.00
58622;BME280;44389;51.578;5.456;2023-07-29T01:58:24;100570.06;;;15.71;100.00
58622;BME280;44389;51.578;5.456;2023-07-29T02:00:49;100582.19;;;15.75;100.00
58622;BME280;44389;51.578;5.456;2023-07-29T02:03:14;100572.69;;;15.77;100.00
58622;BME280;44389;51.578;5.456;2023-07-29T02:05:40;100571.84;;;15.81;100.00
58622;BME280;44389;51.578;5.456;2023-07-29T02:08:05;100567.47;;;15.80;100.00
58622;BME280;44389;51.578;5.456;2023-07-29T02:10:30;100560.59;;;15.82;100.00
58622;BME280;44389;51.578;5.456;2023-07-29T02:12:56;100567.53;;;15.85;100.00
58622;BME280;44389;51.578;5.456;2023-07-29T02:15:21;100565.81;;;15.82;100.00
58622;BME280;44389;51.578;5.456;2023-07-29T02:17:46;100559.75;;;15.85;100.00
58622;BME280;44389;51.578;5.456;2023-07-29T02:20:11;100564.09;;;15.86;100.00
58622;BME280;44389;51.578;5.456;2023-07-29T02:22:37;100550.22;;;15.82;100.00
58622;BME280;44389;51.578;5.456;2023-07-29T02:25:03;100548.41;;;15.73;100.00
58622;BME280;44389;51.578;5.456;2023-07-29T02:27:28;100547.53;;;15.70;100.00
58622;BME280;44389;51.578;5.456;2023-07-29T02:29:54;100550.13;;;15.67;100.00
58622;BME280;44389;51.578;5.456;2023-07-29T02:32:20;100549.28;;;15.69;100.00
58622;BME280;44389;51.578;5.456;2023-07-29T02:34:45;100544.94;;;15.63;100.00
58622;BME280;44389;51.578;5.456;2023-07-29T02:37:10;100547.50;;;15.62;100.00
58622;BME280;44389;51.578;5.456;2023-07-29T02:39:36;100551.81;;;15.57;100.00
58622;BME280;44389;51.578;5.456;2023-07-29T02:42:02;100541.41;;;15.57;100.00
58622;BME280;44389;51.578;5.456;2023-07-29T02:44:28;100546.59;;;15.54;100.00
58622;BME280;44389;51.578;5.456;2023-07-29T02:46:53;100548.31;;;15.52;100.00
58622;BME280;44389;51.578;5.456;2023-07-29T02:49:21;100546.59;;;15.51;100.00
58622;BME280;44389;51.578;5.456;2023-07-29T02:51:46;100548.31;;;15.45;100.00
58622;BME280;44389;51.578;5.456;2023-07-29T02:54:11;100543.13;;;15.45;100.00
58622;BME280;44389;51.578;5.456;2023-07-29T02:56:36;100541.34;;;15.41;100.00
58622;BME280;44389;51.578;5.456;2023-07-29T02:59:02;100543.94;;;15.38;100.00
58622;BME280;44389;51.578;5.456;2023-07-29T03:01:27;100545.66;;;15.36;100.00
58622;BME280;44389;51.578;5.456;2023-07-29T03:03:53;100540.44;;;15.31;100.00
58622;BME280;44389;51.578;5.456;2023-07-29T03:06:18;100541.31;;;15.29;100.00
58622;BME280;44389;51.578;5.456;2023-07-29T03:08:44;100538.69;;;15.27;100.00
58622;BME280;44389;51.578;5.456;2023-07-29T03:11:13;100542.16;;;15.29;100.00
58622;BME280;44389;51.578;5.456;2023-07-29T03:13:39;100539.56;;;15.25;100.00
58622;BME280;44389;51.578;5.456;2023-07-29T03:16:11;100542.13;;;15.23;100.00
58622;BME280;44389;51.578;5.456;2023-07-29T03:18:37;100540.41;;;15.27;100.00
58622;BME280;44389;51.578;5.456;2023-07-29T03:21:03;100536.91;;;15.20;100.00
58622;BME280;44389;51.578;5.456;2023-07-29T03:23:29;100539.50;;;15.19;100.00
58622;BME280;44389;51.578;5.456;2023-07-29T03:25:55;100539.50;;;15.19;100.00
58622;BME280;44389;51.578;5.456;2023-07-29T03:28:24;100557.69;;;15.17;100.00
58622;BME280;44389;51.578;5.456;2023-07-29T03:30:50;100551.59;;;15.13;100.00
58622;BME280;44389;51.578;5.456;2023-07-29T03:33:15;100555.94;;;15.14;100.00
58622;BME280;44389;51.578;5.456;2023-07-29T03:35:40;100552.44;;;15.14;100.00
58622;BME280;44389;51.578;5.456;2023-07-29T03:38:09;100544.66;;;15.12;100.00
58622;BME280;44389;51.578;5.456;2023-07-29T03:40:35;100554.19;;;15.13;100.00
58622;BME280;44389;51.578;5.456;2023-07-29T03:43:00;100559.38;;;15.12;100.00
58622;BME280;44389;51.578;5.456;2023-07-29T03:45:25;100562.81;;;15.09;100.00
58622;BME280;44389;51.578;5.456;2023-07-29T03:47:51;100549.84;;;15.09;100.00
58622;BME280;44389;51.578;5.456;2023-07-29T03:50:16;100544.63;;;15.06;100.00
58622;BME280;44389;51.578;5.456;2023-07-29T03:52:41;100549.81;;;15.06;100.00
58622;BME280;44389;51.578;5.456;2023-07-29T03:55:07;100547.22;;;15.03;100.00
58622;BME280;44389;51.578;5.456;2023-07-29T03:57:32;100541.16;;;15.04;100.00
58622;BME280;44389;51.578;5.456;2023-07-29T03:59:57;100535.09;;;15.02;100.00
58622;BME280;44389;51.578;5.456;2023-07-29T04:02:23;100526.41;;;14.95;100.00
58622;BME280;44389;51.578;5.456;2023-07-29T04:04:48;100504.75;;;14.92;100.00
58622;BME280;44389;51.578;5.456;2023-07-29T04:07:13;100500.41;;;14.92;100.00
58622;BME280;44389;51.578;5.456;2023-07-29T04:09:39;100506.44;;;14.90;100.00
58622;BME280;44389;51.578;5.456;2023-07-29T04:12:05;100512.53;;;14.89;100.00
58622;BME280;44389;51.578;5.456;2023-07-29T04:14:30;100503.84;;;14.90;100.00
58622;BME280;44389;51.578;5.456;2023-07-29T04:16:55;100506.44;;;14.90;100.00
58622;BME280;44389;51.578;5.456;2023-07-29T04:19:21;100496.06;;;14.90;100.00
58622;BME280;44389;51.578;5.456;2023-07-29T04:21:47;100515.97;;;14.91;100.00
58622;BME280;44389;51.578;5.456;2023-07-29T04:24:12;100535.03;;;14.93;100.00
58622;BME280;44389;51.578;5.456;2023-07-29T04:26:37;100542.81;;;14.93;100.00
58622;BME280;44389;51.578;5.456;2023-07-29T04:29:04;100560.13;;;14.94;100.00
58622;BME280;44389;51.578;5.456;2023-07-29T04:31:30;100567.91;;;14.95;100.00
58622;BME280;44389;51.578;5.456;2023-07-29T04:33:55;100572.25;;;14.98;100.00
58622;BME280;44389;51.578;5.456;2023-07-29T04:36:20;100571.41;;;15.01;100.00
58622;BME280;44389;51.578;5.456;2023-07-29T04:38:45;100568.84;;;15.05;100.00
58622;BME280;44389;51.578;5.456;2023-07-29T04:41:11;100560.19;;;15.06;100.00
58622;BME280;44389;51.578;5.456;2023-07-29T04:43:36;100560.22;;;15.09;100.00
58622;BME280;44389;51.578;5.456;2023-07-29T04:46:01;100560.25;;;15.12;100.00
58622;BME280;44389;51.578;5.456;2023-07-29T04:48:27;100574.09;;;15.14;100.00
58622;BME280;44389;51.578;5.456;2023-07-29T04:50:52;100578.44;;;15.19;100.00
58622;BME280;44389;51.578;5.456;2023-07-29T04:53:18;100565.47;;;15.20;100.00
58622;BME280;44389;51.578;5.456;2023-07-29T04:55:43;100558.59;;;15.24;100.00
58622;BME280;44389;51.578;5.456;2023-07-29T04:58:09;100558.59;;;15.25;100.00
58622;BME280;44389;51.578;5.456;2023-07-29T05:00:34;100562.06;;;15.29;100.00
58622;BME280;44389;51.578;5.456;2023-07-29T05:03:00;100569.88;;;15.30;100.00
58622;BME280;44389;51.578;5.456;2023-07-29T05:05:26;100570.72;;;15.31;100.00
58622;BME280;44389;51.578;5.456;2023-07-29T05:07:51;100575.94;;;15.33;100.00
58622;BME280;44389;51.578;5.456;2023-07-29T05:10:17;100586.34;;;15.36;100.00
58622;BME280;44389;51.578;5.456;2023-07-29T05:12:42;100586.34;;;15.37;100.00
58622;BME280;44389;51.578;5.456;2023-07-29T05:15:08;100580.28;;;15.41;100.00
58622;BME280;44389;51.578;5.456;2023-07-29T05:17:33;100585.53;;;15.43;100.00
58622;BME280;44389;51.578;5.456;2023-07-29T05:19:58;100597.66;;;15.48;100.00
58622;BME280;44389;51.578;5.456;2023-07-29T05:22:24;100601.16;;;15.52;100.00
58622;BME280;44389;51.578;5.456;2023-07-29T05:24:50;100592.50;;;15.55;100.00
58622;BME280;44389;51.578;5.456;2023-07-29T05:27:15;100591.66;;;15.59;100.00
58622;BME280;44389;51.578;5.456;2023-07-29T05:29:41;100588.19;;;15.63;100.00
58622;BME280;44389;51.578;5.456;2023-07-29T05:32:06;100577.84;;;15.66;100.00
58622;BME280;44389;51.578;5.456;2023-07-29T05:34:32;100584.75;;;15.67;100.00
58622;BME280;44389;51.578;5.456;2023-07-29T05:36:57;100586.50;;;15.68;100.00
58622;BME280;44389;51.578;5.456;2023-07-29T05:39:22;100581.31;;;15.68;100.00
58622;BME280;44389;51.578;5.456;2023-07-29T05:41:49;100581.31;;;15.68;100.00
58622;BME280;44389;51.578;5.456;2023-07-29T05:44:14;100587.38;;;15.72;100.00
58622;BME280;44389;51.578;5.456;2023-07-29T05:46:40;100583.94;;;15.74;100.00
58622;BME280;44389;51.578;5.456;2023-07-29T05:49:05;100583.06;;;15.80;100.00
58622;BME280;44389;51.578;5.456;2023-07-29T05:51:30;100578.78;;;15.87;100.00
58622;BME280;44389;51.578;5.456;2023-07-29T05:53:55;100587.50;;;15.96;100.00
58622;BME280;44389;51.578;5.456;2023-07-29T05:56:21;100584.03;;;16.02;100.00
58622;BME280;44389;51.578;5.456;2023-07-29T05:58:46;100588.44;;;16.16;100.00
58622;BME280;44389;51.578;5.456;2023-07-29T06:01:11;100589.31;;;16.22;100.00
58622;BME280;44389;51.578;5.456;2023-07-29T06:03:37;100592.78;;;16.29;100.00
58622;BME280;44389;51.578;5.456;2023-07-29T06:06:02;100588.47;;;16.31;100.00
58622;BME280;44389;51.578;5.456;2023-07-29T06:08:28;100588.47;;;16.40;100.00
58622;BME280;44389;51.578;5.456;2023-07-29T06:10:54;100591.94;;;16.49;100.00
58622;BME280;44389;51.578;5.456;2023-07-29T06:13:19;100590.22;;;16.60;100.00
58622;BME280;44389;51.578;5.456;2023-07-29T06:15:45;100589.34;;;16.79;100.00
58622;BME280;44389;51.578;5.456;2023-07-29T06:18:10;100594.59;;;16.93;100.00
58622;BME280;44389;51.578;5.456;2023-07-29T06:20:35;100598.94;;;17.02;100.00
58622;BME280;44389;51.578;5.456;2023-07-29T06:23:01;100594.56;;;17.20;100.00
58622;BME280;44389;51.578;5.456;2023-07-29T06:25:27;100586.72;;;17.32;100.00
58622;BME280;44389;51.578;5.456;2023-07-29T06:27:52;100598.91;;;17.30;100.00
58622;BME280;44389;51.578;5.456;2023-07-29T06:30:18;100581.56;;;17.20;100.00
58622;BME280;44389;51.578;5.456;2023-07-29T06:32:43;100595.44;;;17.13;100.00
58622;BME280;44389;51.578;5.456;2023-07-29T06:35:08;100593.69;;;17.05;100.00
58622;BME280;44389;51.578;5.456;2023-07-29T06:37:34;100598.06;;;16.94;100.00
58622;BME280;44389;51.578;5.456;2023-07-29T06:39:59;100593.72;;;16.99;100.00
58622;BME280;44389;51.578;5.456;2023-07-29T06:42:24;100597.19;;;17.01;100.00
58622;BME280;44389;51.578;5.456;2023-07-29T06:44:50;100597.19;;;17.04;100.00
58622;BME280;44389;51.578;5.456;2023-07-29T06:47:15;100587.63;;;17.13;100.00
58622;BME280;44389;51.578;5.456;2023-07-29T06:49:40;100585.00;;;17.25;100.00
58622;BME280;44389;51.578;5.456;2023-07-29T06:52:06;100590.22;;;17.25;100.00
58622;BME280;44389;51.578;5.456;2023-07-29T06:54:31;100588.47;;;17.30;100.00
58622;BME280;44389;51.578;5.456;2023-07-29T06:56:56;100596.25;;;17.39;100.00
58622;BME280;44389;51.578;5.456;2023-07-29T06:59:22;100597.09;;;17.46;100.00
58622;BME280;44389;51.578;5.456;2023-07-29T07:01:47;100605.78;;;17.56;100.00
58622;BME280;44389;51.578;5.456;2023-07-29T07:04:12;100604.88;;;17.61;100.00
58622;BME280;44389;51.578;5.456;2023-07-29T07:06:38;100611.75;;;17.76;100.00
58622;BME280;44389;51.578;5.456;2023-07-29T07:09:03;100617.84;;;17.83;100.00
58622;BME280;44389;51.578;5.456;2023-07-29T07:11:28;100618.59;;;18.08;100.00
58622;BME280;44389;51.578;5.456;2023-07-29T07:13:54;100614.00;;;18.55;100.00
58622;BME280;44389;51.578;5.456;2023-07-29T07:16:19;100617.50;;;18.53;100.00
58622;BME280;44389;51.578;5.456;2023-07-29T07:18:44;100613.13;;;18.52;100.00
58622;BME280;44389;51.578;5.456;2023-07-29T07:21:10;100615.75;;;18.52;100.00
58622;BME280;44389;51.578;5.456;2023-07-29T07:23:35;100613.13;;;18.52;100.00
58622;BME280;44389;51.578;5.456;2023-07-29T07:26:01;100609.72;;;18.42;100.00
58622;BME280;44389;51.578;5.456;2023-07-29T07:28:26;100616.63;;;18.51;100.00
58622;BME280;44389;51.578;5.456;2023-07-29T07:30:52;100609.50;;;18.71;100.00
58622;BME280;44389;51.578;5.456;2023-07-29T07:33:17;100624.25;;;18.75;100.00
58622;BME280;44389;51.578;5.456;2023-07-29T07:35:43;100629.47;;;18.75;100.00
58622;BME280;44389;51.578;5.456;2023-07-29T07:38:08;100639.97;;;18.72;100.00
58622;BME280;44389;51.578;5.456;2023-07-29T07:40:35;100641.66;;;18.76;100.00
58622;BME280;44389;51.578;5.456;2023-07-29T07:43:01;100642.59;;;18.68;100.00
58622;BME280;44389;51.578;5.456;2023-07-29T07:45:26;100637.44;;;18.63;100.00
58622;BME280;44389;51.578;5.456;2023-07-29T07:47:56;100641.72;;;18.69;100.00
58622;BME280;44389;51.578;5.456;2023-07-29T07:50:21;100641.66;;;18.76;100.00
58622;BME280;44389;51.578;5.456;2023-07-29T07:52:47;100645.19;;;18.72;100.00
58622;BME280;44389;51.578;5.456;2023-07-29T07:55:12;100647.66;;;18.92;100.00
58622;BME280;44389;51.578;5.456;2023-07-29T07:57:37;100648.56;;;18.91;100.00
58622;BME280;44389;51.578;5.456;2023-07-29T08:00:03;100652.03;;;18.92;100.00
58622;BME280;44389;51.578;5.456;2023-07-29T08:02:29;100647.59;;;18.99;100.00
58622;BME280;44389;51.578;5.456;2023-07-29T08:04:55;100634.44;;;19.13;100.00
58622;BME280;44389;51.578;5.456;2023-07-29T08:07:20;100642.25;;;19.14;100.00
58622;BME280;44389;51.578;5.456;2023-07-29T08:09:45;100633.41;;;19.26;100.00
58622;BME280;44389;51.578;5.456;2023-07-29T08:12:11;100637.75;;;19.30;100.00
58622;BME280;44389;51.578;5.456;2023-07-29T08:14:36;100636.84;;;19.31;100.00
58622;BME280;44389;51.578;5.456;2023-07-29T08:17:01;100651.56;;;19.45;100.00
58622;BME280;44389;51.578;5.456;2023-07-29T08:19:28;100651.72;;;19.29;100.00
58622;BME280;44389;51.578;5.456;2023-07-29T08:21:53;100648.25;;;19.25;100.00
58622;BME280;44389;51.578;5.456;2023-07-29T08:24:18;100652.59;;;19.23;100.00
58622;BME280;44389;51.578;5.456;2023-07-29T08:26:43;100654.50;;;19.07;100.00
58622;BME280;44389;51.578;5.456;2023-07-29T08:29:09;100648.50;;;18.99;100.00
58622;BME280;44389;51.578;5.456;2023-07-29T08:31:34;100644.16;;;18.94;100.00
58622;BME280;44389;51.578;5.456;2023-07-29T08:34:00;100636.94;;;19.23;100.00
58622;BME280;44389;51.578;5.456;2023-07-29T08:36:26;100639.50;;;19.28;100.00
58622;BME280;44389;51.578;5.456;2023-07-29T08:38:51;100638.47;;;19.43;100.00
58622;BME280;44389;51.578;5.456;2023-07-29T08:41:21;100631.28;;;19.64;100.00
58622;BME280;44389;51.578;5.456;2023-07-29T08:44:10;100638.25;;;19.65;99.39
58622;BME280;44389;51.578;5.456;2023-07-29T08:46:37;100633.72;;;19.81;100.00
58622;BME280;44389;51.578;5.456;2023-07-29T08:49:02;100635.38;;;19.91;98.79
58622;BME280;44389;51.578;5.456;2023-07-29T08:51:29;100637.84;;;20.02;97.04
58622;BME280;44389;51.578;5.456;2023-07-29T08:53:57;100633.44;;;20.05;93.96
58622;BME280;44389;51.578;5.456;2023-07-29T08:56:23;100641.88;;;20.28;95.11
58622;BME280;44389;51.578;5.456;2023-07-29T08:58:49;100636.72;;;20.21;94.08
58622;BME280;44389;51.578;5.456;2023-07-29T09:01:15;100636.63;;;20.28;93.24
58622;BME280;44389;51.578;5.456;2023-07-29T09:03:41;100632.88;;;20.46;94.65
58622;BME280;44389;51.578;5.456;2023-07-29T09:06:07;100632.75;;;20.53;90.10
58622;BME280;44389;51.578;5.456;2023-07-29T09:08:33;100629.97;;;20.64;89.59
58622;BME280;44389;51.578;5.456;2023-07-29T09:10:59;100638.28;;;20.94;89.98
58622;BME280;44389;51.578;5.456;2023-07-29T09:13:25;100640.06;;;20.91;88.81
58622;BME280;44389;51.578;5.456;2023-07-29T09:15:54;100640.22;;;20.81;87.62
58622;BME280;44389;51.578;5.456;2023-07-29T09:18:20;100633.16;;;20.85;87.67
58622;BME280;44389;51.578;5.456;2023-07-29T09:20:47;100632.44;;;20.77;87.13
58622;BME280;44389;51.578;5.456;2023-07-29T09:23:13;100630.81;;;20.66;88.38
58622;BME280;44389;51.578;5.456;2023-07-29T09:25:39;100622.94;;;20.68;89.73
58622;BME280;44389;51.578;5.456;2023-07-29T09:28:10;100623.72;;;20.75;91.11
58622;BME280;44389;51.578;5.456;2023-07-29T09:30:40;100621.03;;;20.79;90.91
58622;BME280;44389;51.578;5.456;2023-07-29T09:33:06;100620.00;;;20.89;90.09
58622;BME280;44389;51.578;5.456;2023-07-29T09:35:34;100622.44;;;21.02;88.82
58622;BME280;44389;51.578;5.456;2023-07-29T09:38:00;100627.22;;;21.27;91.53
58622;BME280;44389;51.578;5.456;2023-07-29T09:40:26;100624.97;;;21.52;88.18
58622;BME280;44389;51.578;5.456;2023-07-29T09:42:55;100623.72;;;21.75;85.69
58622;BME280;44389;51.578;5.456;2023-07-29T09:45:22;100621.97;;;21.74;83.85
58622;BME280;44389;51.578;5.456;2023-07-29T09:47:48;100621.47;;;21.54;83.03
58622;BME280;44389;51.578;5.456;2023-07-29T09:50:14;100634.06;;;21.34;84.01
58622;BME280;44389;51.578;5.456;2023-07-29T09:52:39;100630.44;;;21.41;83.33
58622;BME280;44389;51.578;5.456;2023-07-29T09:55:05;100639.22;;;21.38;82.31
58622;BME280;44389;51.578;5.456;2023-07-29T09:57:32;100631.41;;;21.37;83.57
58622;BME280;44389;51.578;5.456;2023-07-29T09:59:57;100637.72;;;21.27;83.76
58622;BME280;44389;51.578;5.456;2023-07-29T10:02:23;100630.63;;;21.32;86.55
58622;BME280;44389;51.578;5.456;2023-07-29T10:04:52;100633.91;;;21.42;85.27
58622;BME280;44389;51.578;5.456;2023-07-29T10:07:18;100639.97;;;21.45;83.35
58622;BME280;44389;51.578;5.456;2023-07-29T10:09:45;100636.44;;;21.48;86.54
58622;BME280;44389;51.578;5.456;2023-07-29T10:12:11;100639.78;;;21.56;86.95
58622;BME280;44389;51.578;5.456;2023-07-29T10:14:38;100630.69;;;21.76;85.63
58622;BME280;44389;51.578;5.456;2023-07-29T10:17:04;100627.25;;;22.14;85.96
58622;BME280;44389;51.578;5.456;2023-07-29T10:19:30;100634.34;;;22.86;78.58
58622;BME280;44389;51.578;5.456;2023-07-29T10:21:59;100626.81;;;23.07;77.05
58622;BME280;44389;51.578;5.456;2023-07-29T10:24:30;100627.97;;;22.96;77.82
58622;BME280;44389;51.578;5.456;2023-07-29T10:27:00;100626.84;;;22.71;76.28
58622;BME280;44389;51.578;5.456;2023-07-29T10:29:31;100624.50;;;22.96;77.62
58622;BME280;44389;51.578;5.456;2023-07-29T10:32:01;100623.13;;;23.15;74.64
58622;BME280;44389;51.578;5.456;2023-07-29T10:34:29;100622.06;;;23.23;72.52
58622;BME280;44389;51.578;5.456;2023-07-29T10:36:55;100614.53;;;23.42;72.32
58622;BME280;44389;51.578;5.456;2023-07-29T10:39:20;100611.25;;;23.65;71.98
58622;BME280;44389;51.578;5.456;2023-07-29T10:42:03;100615.78;;;24.21;72.01
58622;BME280;44389;51.578;5.456;2023-07-29T10:49:40;100605.22;;;24.78;62.41
58622;BME280;44389;51.578;5.456;2023-07-29T10:52:06;100604.66;;;24.11;64.31
58622;BME280;44389;51.578;5.456;2023-07-29T10:54:42;100606.31;;;23.84;68.59
58622;BME280;44389;51.578;5.456;2023-07-29T10:57:07;100600.75;;;23.33;70.41
58622;BME280;44389;51.578;5.456;2023-07-29T10:59:33;100601.53;;;23.02;72.37
58622;BME280;44389;51.578;5.456;2023-07-29T11:02:01;100608.66;;;22.63;75.69
58622;BME280;44389;51.578;5.456;2023-07-29T11:04:28;100603.94;;;22.40;75.41
58622;BME280;44389;51.578;5.456;2023-07-29T11:09:42;100611.50;;;22.14;77.79
58622;BME280;44389;51.578;5.456;2023-07-29T11:12:40;100610.88;;;22.03;79.08
58622;BME280;44389;51.578;5.456;2023-07-29T11:17:35;100598.66;;;21.60;79.04
58622;BME280;44389;51.578;5.456;2023-07-29T11:20:02;100605.88;;;21.45;79.71
58622;BME280;44389;51.578;5.456;2023-07-29T11:22:28;100606.69;;;21.49;81.24
58622;BME280;44389;51.578;5.456;2023-07-29T11:24:54;100617.19;;;21.49;79.92
58622;BME280;44389;51.578;5.456;2023-07-29T11:27:20;100617.31;;;21.43;81.28
58622;BME280;44389;51.578;5.456;2023-07-29T11:29:46;100609.66;;;21.32;82.90
58622;BME280;44389;51.578;5.456;2023-07-29T11:32:11;100605.38;;;21.26;85.24
58622;BME280;44389;51.578;5.456;2023-07-29T11:34:37;100612.53;;;21.18;88.08
58622;BME280;44389;51.578;5.456;2023-07-29T11:37:02;100616.88;;;21.19;88.29
58622;BME280;44389;51.578;5.456;2023-07-29T11:39:28;100605.97;;;21.42;88.69
58622;BME280;44389;51.578;5.456;2023-07-29T11:41:53;100604.84;;;22.39;85.02
58622;BME280;44389;51.578;5.456;2023-07-29T11:44:18;100606.47;;;23.15;81.20
58622;BME280;44389;51.578;5.456;2023-07-29T11:46:44;100611.31;;;24.23;73.52
58622;BME280;44389;51.578;5.456;2023-07-29T11:49:09;100611.25;;;25.07;70.06
58622;BME280;44389;51.578;5.456;2023-07-29T11:51:36;100605.28;;;25.02;66.96
58622;BME280;44389;51.578;5.456;2023-07-29T11:54:01;100604.41;;;25.26;69.25
58622;BME280;44389;51.578;5.456;2023-07-29T11:56:27;100606.19;;;25.01;63.84
58622;BME280;44389;51.578;5.456;2023-07-29T11:58:54;100597.13;;;24.82;64.14
58622;BME280;44389;51.578;5.456;2023-07-29T12:01:20;100589.75;;;24.39;67.08
58622;BME280;44389;51.578;5.456;2023-07-29T12:03:48;100579.91;;;23.87;66.22
58622;BME280;44389;51.578;5.456;2023-07-29T12:06:14;100588.34;;;23.39;69.30
58622;BME280;44389;51.578;5.456;2023-07-29T12:08:41;100605.31;;;22.92;74.03
58622;BME280;44389;51.578;5.456;2023-07-29T12:11:08;100617.16;;;22.36;78.80
58622;BME280;44389;51.578;5.456;2023-07-29T12:13:33;100616.72;;;21.74;84.16
58622;BME280;44389;51.578;5.456;2023-07-29T12:16:03;100623.34;;;20.99;92.02
58622;BME280;44389;51.578;5.456;2023-07-29T12:18:36;100652.00;;;20.51;94.09
58622;BME280;44389;51.578;5.456;2023-07-29T12:21:01;100656.25;;;19.94;100.00
58622;BME280;44389;51.578;5.456;2023-07-29T12:23:29;100654.13;;;19.48;100.00
58622;BME280;44389;51.578;5.456;2023-07-29T12:25:58;100658.16;;;19.77;100.00
58622;BME280;44389;51.578;5.456;2023-07-29T12:28:24;100665.97;;;18.88;100.00
58622;BME280;44389;51.578;5.456;2023-07-29T12:30:56;100660.06;;;18.56;100.00
58622;BME280;44389;51.578;5.456;2023-07-29T12:35:56;100671.53;;;18.32;100.00
58622;BME280;44389;51.578;5.456;2023-07-29T12:38:22;100669.84;;;18.22;100.00
58622;BME280;44389;51.578;5.456;2023-07-29T12:40:47;100675.13;;;18.08;100.00
58622;BME280;44389;51.578;5.456;2023-07-29T12:43:12;100660.34;;;18.07;100.00
58622;BME280;44389;51.578;5.456;2023-07-29T12:45:38;100650.81;;;17.98;100.00
58622;BME280;44389;51.578;5.456;2023-07-29T12:48:05;100644.69;;;18.02;100.00
58622;BME280;44389;51.578;5.456;2023-07-29T12:50:30;100654.22;;;18.13;100.00
58622;BME280;44389;51.578;5.456;2023-07-29T12:52:57;100652.28;;;18.52;100.00